Flight Track Log - Related Links

Times and Time Zones

All times are in EDT time to prevent confusion due to time zone crossing. See the N31CG flight status page for this flight to view local times or setup timezone preferences in your user account.

Time Position Orientation Groundspeed Altitude Reporting Facility
EDT Latitude Longitude Course Direction KTS MPH feet Rate Location/Type
Tue 05:14:57 PM 34.2436 -78.0036 321° Northwest 159 183 4,000  Level Washington Center
Tue 05:15:58 PM 34.2697 -78.0547 302° West 159 183 6,000 1,475 Climbing Washington Center
Tue 05:16:59 PM 34.3125 -78.0964 321° Northwest 176 203 7,000 1,008 Climbing Washington Center
Tue 05:17:57 PM 34.3531 -78.1578 309° West 207 238 8,000 1,613 Climbing Washington Center
Tue 05:18:58 PM 34.3850 -78.2167 303° West 212 244 10,200 1,918 Climbing Washington Center
Tue 05:19:00 PM 34.5420 -78.2038 315° West  Level FlightAware Approximate
Tue 05:19:59 PM 34.4192 -78.2733 306° West 212 244 11,900  Level Washington Center
Tue 05:20:00 PM 34.5879 -78.2546 321° Northwest  Level FlightAware Approximate
Tue 05:20:59 PM 34.4556 -78.3322 307° West 217 250 13,400  Level Washington Center
Tue 05:21:57 PM 34.4956 -78.3992 306° West 227 261 14,000 303 Climbing Washington Center
Tue 05:22:58 PM 34.5419 -78.4714 308° West 253 291 14,000  Level Washington Center
Tue 05:23:59 PM 34.5861 -78.5411 308° West 279 321 14,000  Level Washington Center
Tue 05:24:59 PM 34.6364 -78.6236 307° West 284 327 14,000  Level Washington Center
Tue 05:25:57 PM 34.6803 -78.6933 307° West 289 333 14,000  Level Washington Center
Tue 05:26:57 PM 34.7303 -78.7786 306° West 289 333 14,000  Level Washington Center
Tue 05:27:58 PM 34.7722 -78.8461 307° West 289 333 14,000  Level Washington Center
Tue 05:28:59 PM 34.8242 -78.9317 307° West 289 333 14,000  Level Washington Center
Tue 05:29:56 PM 34.8661 -79.0017 306° West 289 333 14,000  Level Washington Center
Tue 05:30:58 PM 34.9117 -79.0822 305° West 294 338 14,000  Level Washington Center
Tue 05:31:59 PM 34.9572 -79.1628 305° West 294 338 14,000  Level Washington Center
Tue 05:32:59 PM 35.0242 -79.2239 323° Northwest 294 338 14,000  Level Washington Center
Tue 05:33:57 PM 35.0936 -79.2753 329° Northwest 289 333 14,000  Level Washington Center
Tue 05:34:57 PM 35.1672 -79.3269 330° Northwest 296 341 14,000  Level Washington Center
Tue 05:35:58 PM 35.2386 -79.3811 328° Northwest 296 341 14,000  Level Washington Center
Tue 05:37:00 PM 35.2235 -79.4604 257° West  Level FlightAware Approximate
Tue 05:44:00 PM 35.5856 -79.6350 329° Northwest  Level FlightAware Approximate
Tue 05:45:00 PM 35.6410 -79.6752 329° Northwest  Level FlightAware Approximate
Tue 05:46:00 PM 35.6964 -79.7155 329° Northwest  Level FlightAware Approximate
Tue 05:47:00 PM 35.7518 -79.7558 329° Northwest  Level FlightAware Approximate
Tue 05:48:00 PM 35.8064 -79.7975 328° Northwest  Level FlightAware Approximate
Tue 05:49:00 PM 35.8609 -79.8399 328° Northwest  Level FlightAware Approximate
Tue 05:50:00 PM 35.9152 -79.8822 328° Northwest  Level FlightAware Approximate
Tue 05:51:00 PM 35.9691 -79.9191 321° Northwest  Level FlightAware Approximate
Tue 05:52:00 PM 36.0238 -79.9603 332° Northwest  Level FlightAware Approximate

Login

Don't have an account? Register now (free) for customized features, flight alerts, and more!